createdAt,value
2022-11-13T00:01:41.713Z,68.20
2022-11-13T00:04:27.409Z,67.40
2022-11-13T00:07:12.957Z,73.70
2022-11-13T00:09:58.356Z,47.80
2022-11-13T00:12:44.201Z,61.70
2022-11-13T00:15:29.911Z,94.60
2022-11-13T00:18:15.556Z,68.30
2022-11-13T00:21:08.561Z,34.70
2022-11-13T00:23:55.885Z,81.80
2022-11-13T00:26:42.412Z,43.20
2022-11-13T00:29:28.369Z,83.00
2022-11-13T00:32:13.690Z,42.70
2022-11-13T00:34:59.070Z,34.00
2022-11-13T00:37:44.786Z,48.70
2022-11-13T00:40:30.964Z,32.00
2022-11-13T00:43:16.892Z,47.80
2022-11-13T00:46:02.844Z,109.60
2022-11-13T00:48:48.439Z,116.00
2022-11-13T00:51:34.578Z,80.10
2022-11-13T00:54:20.525Z,84.40
2022-11-13T00:57:06.105Z,93.50
2022-11-13T00:59:51.924Z,22.30
2022-11-13T01:02:37.253Z,87.20
2022-11-13T01:05:23.313Z,48.60
2022-11-13T01:08:10.489Z,78.10
2022-11-13T01:10:56.251Z,66.30
2022-11-13T01:13:44.594Z,68.40
2022-11-13T01:16:30.197Z,79.30
2022-11-13T01:19:15.471Z,77.40
2022-11-13T01:22:01.284Z,62.10
2022-11-13T01:24:46.534Z,55.60
2022-11-13T01:27:36.497Z,82.80
2022-11-13T01:30:22.502Z,114.30
2022-11-13T01:33:08.161Z,68.80
2022-11-13T01:36:02.602Z,75.40
2022-11-13T01:38:49.524Z,68.90
2022-11-13T01:41:35.837Z,87.20
2022-11-13T01:44:21.632Z,24.90
2022-11-13T01:47:08.075Z,61.00
2022-11-13T01:49:58.224Z,69.40
2022-11-13T01:52:43.666Z,54.40
2022-11-13T01:55:29.418Z,65.70
2022-11-13T01:58:16.086Z,56.50
2022-11-13T02:01:02.455Z,27.10
2022-11-13T02:03:48.047Z,25.20
2022-11-13T02:07:01.909Z,45.40
2022-11-13T02:09:54.531Z,29.80
2022-11-13T02:12:44.897Z,64.20
2022-11-13T02:15:33.905Z,99.90
2022-11-13T02:18:22.249Z,105.80
2022-11-13T02:21:16.693Z,120.80
2022-11-13T02:24:11.157Z,79.20
2022-11-13T02:27:01.831Z,98.20
2022-11-13T02:29:47.587Z,44.30
2022-11-13T02:32:33.104Z,33.10
2022-11-13T02:35:24.055Z,40.80
2022-11-13T02:38:09.829Z,56.90
2022-11-13T02:40:55.369Z,18.00
2022-11-13T02:43:40.948Z,61.50
2022-11-13T02:46:26.527Z,38.10
2022-11-13T02:49:12.157Z,55.70
2022-11-13T02:51:58.021Z,56.30
2022-11-13T02:54:43.520Z,60.50
2022-11-13T02:57:29.056Z,67.00
2022-11-13T03:00:15.273Z,80.90
2022-11-13T03:03:02.165Z,60.20
2022-11-13T03:05:49.564Z,140.50
2022-11-13T03:08:36.215Z,65.80
2022-11-13T03:11:22.429Z,149.00
2022-11-13T03:14:08.272Z,30.70
2022-11-13T03:16:54.055Z,29.30
2022-11-13T03:19:39.584Z,22.80
2022-11-13T03:22:25.667Z,37.60
2022-11-13T03:25:11.562Z,57.90
2022-11-13T03:27:57.137Z,26.60
2022-11-13T03:30:42.861Z,22.50
2022-11-13T03:33:28.855Z,72.50
2022-11-13T03:36:14.325Z,176.30
2022-11-13T03:39:00.063Z,94.60
2022-11-13T03:41:45.669Z,70.70
2022-11-13T03:44:31.126Z,72.10
2022-11-13T03:47:16.946Z,45.10
2022-11-13T03:50:02.577Z,84.70
2022-11-13T03:52:47.939Z,37.50
2022-11-13T03:55:33.580Z,28.70
2022-11-13T03:58:20.354Z,67.10
2022-11-13T04:01:06.101Z,85.10
2022-11-13T04:03:51.436Z,89.30
2022-11-13T04:06:37.039Z,64.30
2022-11-13T04:09:22.943Z,62.40
2022-11-13T04:12:08.168Z,54.20
2022-11-13T04:14:53.846Z,20.30
2022-11-13T04:17:39.598Z,55.40
2022-11-13T04:20:27.389Z,65.50
2022-11-13T04:23:15.186Z,70.90
2022-11-13T04:26:00.849Z,56.40
2022-11-13T04:28:46.668Z,66.60
2022-11-13T04:31:32.118Z,61.20
2022-11-13T04:34:17.417Z,78.10
2022-11-13T04:37:03.020Z,61.70
2022-11-13T04:39:48.739Z,64.10
2022-11-13T04:42:49.532Z,28.90
2022-11-13T04:45:36.089Z,73.40
2022-11-13T04:48:21.890Z,54.40
2022-11-13T04:51:07.258Z,37.60
2022-11-13T04:53:54.946Z,24.80
2022-11-13T04:56:40.791Z,43.70
2022-11-13T04:59:26.625Z,67.40
2022-11-13T05:02:12.337Z,67.90
2022-11-13T05:05:03.480Z,67.90
2022-11-13T05:07:50.746Z,73.00
2022-11-13T05:10:36.560Z,64.70
2022-11-13T05:13:22.031Z,61.90
2022-11-13T05:16:11.358Z,47.00
2022-11-13T05:19:00.036Z,28.50
2022-11-13T05:21:45.450Z,41.40
2022-11-13T05:24:31.791Z,55.90
2022-11-13T05:27:18.014Z,21.50
2022-11-13T05:30:04.676Z,80.10
2022-11-13T05:32:51.810Z,64.40
2022-11-13T05:35:37.353Z,85.40
2022-11-13T05:38:23.179Z,60.40
2022-11-13T05:41:13.796Z,47.70
2022-11-13T05:44:00.000Z,24.10
2022-11-13T05:46:45.690Z,60.00
2022-11-13T05:49:31.472Z,87.30
2022-11-13T05:52:16.961Z,49.40
2022-11-13T05:55:03.159Z,67.50
2022-11-13T05:57:48.669Z,50.00
2022-11-13T06:00:34.227Z,84.50
2022-11-13T06:03:19.957Z,77.10
2022-11-13T06:06:10.996Z,103.10
2022-11-13T06:08:58.729Z,90.50
2022-11-13T06:11:44.381Z,64.00
2022-11-13T06:14:30.248Z,73.50
2022-11-13T06:17:15.922Z,65.20
2022-11-13T06:20:01.577Z,24.70
2022-11-13T06:22:47.122Z,26.10
2022-11-13T06:25:33.147Z,31.20
2022-11-13T06:28:21.112Z,32.40
2022-11-13T06:31:19.561Z,26.20
2022-11-13T06:34:06.036Z,30.90
2022-11-13T06:36:51.546Z,25.50
2022-11-13T06:39:37.341Z,52.10
2022-11-13T06:42:22.917Z,17.10
2022-11-13T06:45:08.660Z,15.00
2022-11-13T06:47:55.009Z,42.90
2022-11-13T06:50:44.428Z,18.60
2022-11-13T06:53:33.852Z,42.40
2022-11-13T06:56:20.502Z,28.50
2022-11-13T06:59:08.420Z,12.10
2022-11-13T07:01:54.283Z,45.90
2022-11-13T07:04:40.253Z,39.10
2022-11-13T07:07:25.820Z,44.70
2022-11-13T07:10:11.721Z,26.40
2022-11-13T07:12:59.801Z,43.90
2022-11-13T07:15:45.731Z,53.20
2022-11-13T07:18:32.902Z,24.90
2022-11-13T07:21:19.175Z,33.20
2022-11-13T07:24:05.050Z,14.80
2022-11-13T07:26:51.075Z,17.00
2022-11-13T07:29:38.691Z,35.00
2022-11-13T07:32:24.403Z,48.20
2022-11-13T07:35:11.231Z,40.30
2022-11-13T07:37:58.267Z,36.40
2022-11-13T07:40:43.683Z,37.40
2022-11-13T07:43:29.505Z,39.40
2022-11-13T07:46:15.119Z,41.90
2022-11-13T07:49:00.745Z,48.20
2022-11-13T07:51:46.517Z,37.50
2022-11-13T07:54:33.328Z,44.80
2022-11-13T07:57:20.556Z,26.00
2022-11-13T08:00:07.505Z,40.20
2022-11-13T08:02:53.415Z,40.40
2022-11-13T08:05:40.035Z,33.50
2022-11-13T08:08:26.114Z,16.10
2022-11-13T08:11:11.447Z,22.90
2022-11-13T08:13:57.417Z,16.50
2022-11-13T08:16:42.632Z,16.80
2022-11-13T08:19:28.354Z,21.30
2022-11-13T08:22:13.994Z,39.50
2022-11-13T08:24:59.850Z,29.30
2022-11-13T08:27:45.433Z,35.50
2022-11-13T08:30:31.219Z,14.80
2022-11-13T08:33:17.130Z,30.10
2022-11-13T08:36:03.029Z,12.50
2022-11-13T08:38:48.508Z,29.60
2022-11-13T08:41:33.893Z,53.20
2022-11-13T08:44:19.166Z,23.50
2022-11-13T08:47:05.260Z,48.90
2022-11-13T08:49:50.696Z,47.20
2022-11-13T08:52:36.418Z,21.60
2022-11-13T08:55:21.875Z,16.70
2022-11-13T08:58:08.802Z,20.20
2022-11-13T09:01:00.401Z,16.00
2022-11-13T09:03:48.912Z,58.60
2022-11-13T09:06:37.472Z,19.70
2022-11-13T09:09:23.081Z,25.90
2022-11-13T09:12:08.458Z,27.80
2022-11-13T09:14:54.394Z,24.50
2022-11-13T09:17:40.630Z,25.70
2022-11-13T09:20:27.988Z,56.60
2022-11-13T09:23:13.485Z,41.50
2022-11-13T09:26:04.851Z,57.90
2022-11-13T09:28:50.643Z,70.00
2022-11-13T09:31:38.876Z,68.50
2022-11-13T09:34:25.966Z,69.60
2022-11-13T09:37:14.630Z,67.30
2022-11-13T09:40:00.495Z,19.60
2022-11-13T09:42:46.565Z,33.30
2022-11-13T09:45:32.999Z,44.80
2022-11-13T09:48:29.759Z,45.40
2022-11-13T09:51:46.839Z,26.80
2022-11-13T09:54:38.251Z,25.80
2022-11-13T09:57:46.595Z,21.50
2022-11-13T10:00:36.786Z,28.70
2022-11-13T10:03:54.199Z,45.40
2022-11-13T10:06:44.149Z,34.30
2022-11-13T10:09:46.447Z,40.80
2022-11-13T10:12:33.497Z,35.80
2022-11-13T10:15:20.478Z,32.40
2022-11-13T10:18:21.486Z,38.70
2022-11-13T10:21:17.478Z,72.70
2022-11-13T10:24:14.370Z,85.40
2022-11-13T10:26:59.970Z,26.80
2022-11-13T10:29:49.280Z,38.10
2022-11-13T10:32:37.061Z,40.20
2022-11-13T10:35:38.525Z,26.70
2022-11-13T10:38:59.742Z,38.40
2022-11-13T10:41:54.030Z,30.20
2022-11-13T10:44:40.627Z,27.30
2022-11-13T10:47:56.779Z,27.30
2022-11-13T10:50:34.994Z,25.00
2022-11-13T10:53:24.996Z,32.60
2022-11-13T10:56:34.025Z,34.50
2022-11-13T10:59:25.052Z,19.20
2022-11-13T11:02:19.824Z,29.30
2022-11-13T11:05:24.189Z,25.90
2022-11-13T11:08:11.227Z,22.40
2022-11-13T11:11:33.397Z,25.30
2022-11-13T11:14:42.958Z,23.30
2022-11-13T11:17:53.429Z,26.80
2022-11-13T11:20:44.547Z,30.10
2022-11-13T11:23:32.670Z,30.70
2022-11-13T11:26:27.881Z,18.50
2022-11-13T11:29:20.443Z,24.40
2022-11-13T11:32:23.191Z,21.80
2022-11-13T11:35:20.214Z,23.20
2022-11-13T11:38:37.969Z,16.00
2022-11-13T11:41:30.433Z,32.30
2022-11-13T11:44:19.077Z,24.70
2022-11-13T11:47:14.170Z,27.30
2022-11-13T11:50:01.565Z,12.50
2022-11-13T11:53:09.934Z,14.80
2022-11-13T11:56:16.683Z,24.50
2022-11-13T11:59:13.891Z,24.50
2022-11-13T12:02:21.164Z,25.10
2022-11-13T12:05:45.229Z,24.10
2022-11-13T12:09:01.179Z,27.90
2022-11-13T12:14:56.385Z,36.80
2022-11-13T12:18:05.893Z,27.80
2022-11-13T12:21:07.441Z,26.20
2022-11-13T12:24:18.018Z,30.10
2022-11-13T12:27:18.479Z,22.70
2022-11-13T12:30:20.646Z,34.40
2022-11-13T12:33:17.602Z,21.20
2022-11-13T12:36:04.337Z,19.90
2022-11-13T12:39:02.357Z,17.90
2022-11-13T12:42:08.867Z,28.20
2022-11-13T12:45:32.393Z,28.90
2022-11-13T12:48:18.044Z,24.10
2022-11-13T12:51:07.254Z,12.00
2022-11-13T12:53:54.414Z,20.30
2022-11-13T12:56:40.323Z,20.50
2022-11-13T12:59:35.304Z,32.40
2022-11-13T13:02:33.276Z,29.30
2022-11-13T13:05:27.255Z,27.30
2022-11-13T13:08:34.572Z,26.10
2022-11-13T13:11:43.590Z,24.90
2022-11-13T13:14:48.090Z,32.50
2022-11-13T13:17:34.494Z,33.70
2022-11-13T13:20:19.942Z,33.50
2022-11-13T13:23:09.797Z,22.40
2022-11-13T13:26:20.775Z,33.00
2022-11-13T13:29:33.005Z,43.40
2022-11-13T13:32:30.353Z,39.70
2022-11-13T13:35:24.265Z,21.90
2022-11-13T13:38:21.513Z,23.90
2022-11-13T13:41:22.753Z,36.40
2022-11-13T13:44:20.025Z,34.00
2022-11-13T13:47:19.764Z,38.90
2022-11-13T13:50:15.043Z,81.10
2022-11-13T13:53:02.086Z,61.50
2022-11-13T13:55:51.258Z,29.30
2022-11-13T13:58:38.554Z,21.40
2022-11-13T14:01:32.561Z,28.80
2022-11-13T14:04:20.805Z,35.60
2022-11-13T14:07:20.503Z,63.70
2022-11-13T14:10:14.440Z,44.00
2022-11-13T14:12:59.938Z,69.50
2022-11-13T14:15:45.560Z,42.30
2022-11-13T14:18:32.369Z,49.90
2022-11-13T14:21:24.325Z,62.40
2022-11-13T14:24:24.994Z,77.40
2022-11-13T14:27:15.427Z,79.10
2022-11-13T14:30:02.508Z,68.20
2022-11-13T14:32:48.260Z,67.80
2022-11-13T14:35:33.549Z,57.40
2022-11-13T14:38:27.157Z,69.40
2022-11-13T14:41:28.399Z,70.90
2022-11-13T14:44:30.653Z,63.60
2022-11-13T14:47:29.498Z,71.50
2022-11-13T14:50:24.991Z,86.70
2022-11-13T14:53:10.895Z,71.40
2022-11-13T14:56:02.109Z,56.60
2022-11-13T14:58:47.485Z,49.20
2022-11-13T15:01:33.387Z,98.70
2022-11-13T15:04:18.533Z,81.90
2022-11-13T15:07:21.228Z,100.20
2022-11-13T15:10:14.059Z,151.60
2022-11-13T15:12:59.918Z,97.00
2022-11-13T15:15:45.324Z,83.60
2022-11-13T15:18:31.973Z,117.90
2022-11-13T15:21:18.138Z,84.60
2022-11-13T15:24:09.418Z,94.40
2022-11-13T15:26:56.954Z,75.30
2022-11-13T15:29:44.171Z,49.80
2022-11-13T15:32:31.584Z,50.10
2022-11-13T15:35:18.249Z,53.00
2022-11-13T15:38:03.493Z,79.90
2022-11-13T15:40:48.772Z,84.20
2022-11-13T15:43:33.847Z,77.90
2022-11-13T15:46:21.391Z,74.90
2022-11-13T15:49:06.473Z,65.90
2022-11-13T15:51:52.719Z,93.20
2022-11-13T15:54:38.672Z,90.60
2022-11-13T15:57:28.262Z,72.30
2022-11-13T16:00:38.231Z,113.70
2022-11-13T16:03:23.486Z,50.30
2022-11-13T16:06:27.598Z,77.20
2022-11-13T16:09:18.488Z,57.40
2022-11-13T16:12:08.246Z,53.10
2022-11-13T16:14:56.400Z,62.60
2022-11-13T16:17:46.274Z,58.90
2022-11-13T16:20:34.037Z,122.50
2022-11-13T16:23:21.830Z,83.90
2022-11-13T16:26:22.625Z,96.50
2022-11-13T16:29:27.123Z,127.30
2022-11-13T16:32:20.104Z,159.50
2022-11-13T16:35:06.548Z,88.60
2022-11-13T16:37:52.298Z,60.20
2022-11-13T16:40:41.138Z,117.00
2022-11-13T16:43:27.247Z,150.40
2022-11-13T16:46:26.017Z,92.90
2022-11-13T16:49:26.236Z,88.60
2022-11-13T16:52:16.006Z,165.50
2022-11-13T16:55:06.724Z,100.30
2022-11-13T16:57:52.881Z,84.80
2022-11-13T17:00:43.894Z,61.90
2022-11-13T17:03:32.520Z,56.30
2022-11-13T17:06:28.784Z,50.10
2022-11-13T17:09:15.484Z,44.10
2022-11-13T17:12:02.118Z,46.00
2022-11-13T17:14:47.817Z,39.50
2022-11-13T17:17:36.278Z,37.10
2022-11-13T17:20:25.631Z,49.10
2022-11-13T17:23:17.912Z,50.80
2022-11-13T17:26:04.830Z,29.50
2022-11-13T17:29:01.992Z,39.60
2022-11-13T17:32:12.035Z,58.80
2022-11-13T17:35:00.554Z,62.30
2022-11-13T17:37:50.431Z,52.20
2022-11-13T17:40:39.682Z,46.20
2022-11-13T17:43:27.983Z,54.20
2022-11-13T17:46:18.744Z,29.30
2022-11-13T17:49:08.429Z,28.60
2022-11-13T17:51:56.963Z,54.40
2022-11-13T17:54:48.029Z,60.70
2022-11-13T17:57:33.505Z,29.20
2022-11-13T18:00:24.865Z,13.40
2022-11-13T18:03:10.803Z,38.40
2022-11-13T18:06:29.535Z,50.40
2022-11-13T18:09:15.377Z,51.10
2022-11-13T18:12:00.829Z,32.90
2022-11-13T18:14:52.439Z,31.50
2022-11-13T18:17:38.368Z,26.20
2022-11-13T18:20:27.631Z,45.10
2022-11-13T18:23:16.693Z,29.40
2022-11-13T18:26:08.217Z,48.20
2022-11-13T18:28:54.133Z,44.30
2022-11-13T18:31:44.161Z,35.10
2022-11-13T18:34:33.365Z,61.10
2022-11-13T18:37:21.996Z,27.00
2022-11-13T18:40:11.481Z,47.70
2022-11-13T18:42:59.507Z,35.80
2022-11-13T18:45:56.815Z,42.60
2022-11-13T18:48:44.358Z,28.10
2022-11-13T18:51:30.192Z,61.20
2022-11-13T18:54:15.730Z,49.60
2022-11-13T18:57:01.196Z,56.60
2022-11-13T18:59:48.753Z,30.70
2022-11-13T19:02:35.846Z,48.60
2022-11-13T19:05:21.542Z,32.50
2022-11-13T19:08:09.933Z,57.30
2022-11-13T19:11:03.676Z,57.90
2022-11-13T19:13:52.883Z,48.00
2022-11-13T19:16:39.690Z,69.40
2022-11-13T19:19:27.708Z,59.30
2022-11-13T19:22:13.432Z,76.10
2022-11-13T19:25:03.195Z,83.50
2022-11-13T19:27:53.993Z,71.60
2022-11-13T19:30:54.256Z,113.40
2022-11-13T19:33:41.131Z,98.70
2022-11-13T19:36:29.403Z,103.50
2022-11-13T19:39:16.981Z,87.20
2022-11-13T19:42:05.538Z,51.40
2022-11-13T19:44:51.473Z,61.30
2022-11-13T19:47:37.294Z,80.70
2022-11-13T19:50:23.394Z,76.70
2022-11-13T19:53:15.509Z,64.80
2022-11-13T19:56:01.300Z,138.20
2022-11-13T19:58:52.897Z,117.90
2022-11-13T20:01:41.810Z,84.10
2022-11-13T20:04:33.743Z,76.70
2022-11-13T20:07:19.720Z,85.70
2022-11-13T20:10:07.501Z,75.40
2022-11-13T20:12:55.452Z,130.30
2022-11-13T20:15:53.348Z,44.90
2022-11-13T20:18:40.331Z,53.20
2022-11-13T20:21:28.554Z,26.00
2022-11-13T20:24:14.035Z,17.50
2022-11-13T20:27:00.107Z,42.30
2022-11-13T20:29:46.104Z,42.80
2022-11-13T20:32:36.097Z,32.90
2022-11-13T20:35:21.793Z,29.60
2022-11-13T20:38:14.043Z,47.30
2022-11-13T20:41:08.088Z,23.50
2022-11-13T20:44:01.212Z,30.90
2022-11-13T20:46:46.775Z,31.00
2022-11-13T20:49:32.784Z,32.00
2022-11-13T20:52:21.481Z,17.90
2022-11-13T20:55:10.194Z,27.00
2022-11-13T20:57:59.002Z,16.70
2022-11-13T21:00:47.693Z,17.50
2022-11-13T21:03:41.326Z,32.50
2022-11-13T21:06:27.531Z,37.10
2022-11-13T21:09:13.384Z,23.90
2022-11-13T21:12:03.337Z,15.20
2022-11-13T21:14:52.260Z,17.10
2022-11-13T21:17:41.414Z,24.10
2022-11-13T21:20:30.213Z,17.90
2022-11-13T21:23:20.017Z,29.40
2022-11-13T21:26:09.696Z,34.50
2022-11-13T21:29:00.064Z,33.40
2022-11-13T21:31:45.623Z,30.70
2022-11-13T21:34:35.612Z,17.90
2022-11-13T21:37:24.773Z,17.50
2022-11-13T21:40:14.353Z,8.50
2022-11-13T21:43:04.906Z,43.60
2022-11-13T21:45:50.521Z,36.50
2022-11-13T21:48:43.560Z,41.10
2022-11-13T21:51:30.730Z,41.00
2022-11-13T21:54:19.190Z,41.80
2022-11-13T21:57:07.357Z,19.60
2022-11-13T21:59:55.617Z,10.00
2022-11-13T22:02:45.739Z,15.20
2022-11-13T22:05:33.590Z,28.10
2022-11-13T22:08:19.233Z,36.20
2022-11-13T22:11:05.479Z,15.10
2022-11-13T22:13:51.601Z,39.30
2022-11-13T22:16:41.502Z,12.80
2022-11-13T22:19:30.110Z,15.10
2022-11-13T22:22:18.018Z,26.30
2022-11-13T22:25:06.289Z,34.60
2022-11-13T22:27:54.614Z,23.80
2022-11-13T22:30:42.382Z,32.60
2022-11-13T22:33:35.986Z,24.00
2022-11-13T22:36:28.784Z,33.60
2022-11-13T22:42:00.043Z,23.20
2022-11-13T22:44:55.934Z,19.10
2022-11-13T22:47:42.152Z,19.90
2022-11-13T22:50:27.856Z,20.70
2022-11-13T22:53:16.121Z,9.80
2022-11-13T22:56:13.090Z,18.00
2022-11-13T22:59:01.090Z,14.50
2022-11-13T23:01:47.626Z,24.70
2022-11-13T23:04:33.281Z,21.70
2022-11-13T23:07:21.456Z,29.60
2022-11-13T23:10:11.023Z,20.50
2022-11-13T23:12:59.212Z,32.10
2022-11-13T23:15:47.869Z,29.90
2022-11-13T23:18:38.138Z,17.70
2022-11-13T23:21:26.052Z,9.20
2022-11-13T23:24:14.559Z,10.90
2022-11-13T23:27:05.476Z,14.80
2022-11-13T23:29:53.566Z,14.80
2022-11-13T23:32:41.732Z,33.30
2022-11-13T23:35:27.834Z,46.10
2022-11-13T23:38:14.245Z,28.00
2022-11-13T23:41:01.504Z,20.40
2022-11-13T23:44:08.075Z,16.80
2022-11-13T23:46:58.013Z,32.80
2022-11-13T23:49:46.270Z,26.00
2022-11-13T23:52:34.760Z,16.60
2022-11-13T23:55:24.546Z,33.60
2022-11-13T23:58:15.004Z,42.20
